Time;durP1;ratioP1;P1;durP2;ratioP2;P2;SDS_P1;SDS_P2;PMS_P1;PMS_P2;Temp;Humidity;BMP_temperature;BMP_pressure;BME280_temperature;BME280_humidity;BME280_pressure;Samples;Min_cycle;Max_cycle;Signal;HPM_P1;HPM_P2
2023/12/11 06:03:53;;;;;;;;;;;;;;;-1.81;100.00;100266.64;1822696;77;20297;-66
2023/12/11 06:06:19;;;;;;;;;;;;;;;-1.80;100.00;100263.23;1822809;77;20122;-70
2023/12/11 06:34:25;;;;;;;;;;;;;;;-1.70;100.00;100263.64;1712421;82;20191;-72
2023/12/11 06:36:52;;;;;;;;;;;;;;;-1.70;100.00;100255.14;1800093;77;20141;-68
2023/12/11 06:39:19;;;;;;;;;;;;;;;-1.67;100.00;100256.83;1824460;77;20124;-72
2023/12/11 06:41:46;;;;;;;;;;;;;;;-1.66;100.00;100252.16;1773027;79;20143;-70
2023/12/11 06:44:13;;;;;;;;;;;;;;;-1.63;100.00;100254.70;1766992;81;20128;-71
2023/12/11 06:46:40;;;;;;;;;;;;;;;-1.60;100.00;100255.97;1772326;80;20429;-71
2023/12/11 06:49:07;;;;;;;;;;;;;;;-1.56;100.00;100262.73;1779501;79;20432;-68
2023/12/11 06:51:35;;;;;;;;;;;;;;;-1.52;100.00;100252.50;1752378;80;20178;-69
2023/12/11 06:54:01;;;;;;;;;;;;;;;-1.48;100.00;100250.79;1748834;81;20156;-70
2023/12/11 06:56:31;;;;;;;;;;;;;;;-1.46;100.00;100248.66;1766157;80;20127;-76
2023/12/11 06:58:58;;;;;;;;;;;;;;;-1.43;100.00;100247.80;1769938;80;20167;-73
2023/12/11 07:01:30;;;;;;;;;;;;;;;-1.39;100.00;100241.82;1800209;79;20104;-69
2023/12/11 07:03:57;;;;;;;;;;;;;;;-1.35;100.00;100240.95;1765265;79;20160;-70
2023/12/11 07:06:26;;;;;;;;;;;;;;;-1.31;100.00;100240.52;1784647;79;20106;-73
2023/12/11 07:08:53;;;;;;;;;;;;;;;-1.29;100.00;100231.98;1783386;79;20150;-73
2023/12/11 07:11:20;;;;;;;;;;;;;;;-1.28;100.00;100229.86;1789366;79;20085;-71
2023/12/11 07:13:47;;;;;;;;;;;;;;;-1.27;100.00;100231.98;1794249;79;20096;-74
2023/12/11 07:16:14;;;;;;;;;;;;;;;-1.26;100.00;100237.09;1792050;79;20144;-72
2023/12/11 07:18:41;;;;;;;;;;;;;;;-1.21;100.00;100234.52;1781768;81;20163;-71
2023/12/11 07:21:09;;;;;;;;;;;;;;;-1.16;100.00;100244.25;1792494;79;20093;-70
2023/12/11 07:23:36;;;;;;;;;;;;;;;-1.12;100.00;100242.95;1784529;79;20097;-72
2023/12/11 07:26:08;;;;;;;;;;;;;;;-1.07;100.00;100236.11;1789746;79;20525;-72
2023/12/11 07:28:36;;;;;;;;;;;;;;;-1.03;100.00;100240.34;1783814;79;20134;-72
2023/12/11 07:31:03;;;;;;;;;;;;;;;-0.99;100.00;100240.33;1782457;81;20152;-74
2023/12/11 07:33:30;;;;;;;;;;;;;;;-0.99;100.00;100241.19;1783553;79;20160;-71
2023/12/11 07:35:57;;;;;;;;;;;;;;;-0.98;100.00;100240.75;1787927;79;20133;-70
2023/12/11 07:38:25;;;;;;;;;;;;;;;-0.95;100.00;100233.92;1792529;79;20379;-75
2023/12/11 07:40:54;;;;;;;;;;;;;;;-0.89;100.00;100235.59;1771683;80;20124;-68
2023/12/11 07:43:27;;;;;;;;;;;;;;;-0.90;100.00;100232.19;1797113;79;20116;-71
2023/12/11 07:45:55;;;;;;;;;;;;;;;-0.92;100.00;100226.23;1790326;80;20094;-72
2023/12/11 07:48:21;;;;;;;;;;;;;;;-0.90;100.00;100231.34;1795308;79;20515;-72
2023/12/11 07:50:48;;;;;;;;;;;;;;;-0.88;100.00;100228.34;1779185;80;20111;-67
2023/12/11 07:53:15;;;;;;;;;;;;;;;-0.87;100.00;100227.48;1776594;80;20267;-71
2023/12/11 13:16:47;;;;;;;;;;;;;;;0.84;100.00;99989.46;1794354;79;20432;-77
2023/12/11 13:19:14;;;;;;;;;;;;;;;0.85;100.00;99985.59;1799087;79;20128;-73
2023/12/11 13:21:41;;;;;;;;;;;;;;;0.85;100.00;99988.59;1792454;79;20134;-71
2023/12/11 13:24:08;;;;;;;;;;;;;;;0.83;100.00;99984.77;1796635;79;20127;-73
2023/12/11 13:26:35;;;;;;;;;;;;;;;0.81;100.00;99976.26;1792312;79;20113;-74
2023/12/11 13:29:06;;;;;;;;;;;;;;;0.80;100.00;99974.56;1791285;79;20505;-71
2023/12/11 13:31:32;;;;;;;;;;;;;;;0.80;100.00;99966.88;1793652;79;20460;-72
2023/12/11 13:33:59;;;;;;;;;;;;;;;0.80;100.00;99968.63;1791701;79;20393;-76
2023/12/11 13:36:26;;;;;;;;;;;;;;;0.78;100.00;99967.38;1793740;79;20097;-68
2023/12/11 13:38:52;;;;;;;;;;;;;;;0.80;100.00;99966.88;1795707;79;20432;-68
2023/12/11 13:41:19;;;;;;;;;;;;;;;0.79;100.00;99968.22;1796590;79;20225;-73
2023/12/11 13:43:46;;;;;;;;;;;;;;;0.79;100.00;99962.66;1778773;79;20180;-74
2023/12/11 13:46:13;;;;;;;;;;;;;;;0.78;100.00;99963.53;1788535;79;20188;-71
2023/12/11 13:48:39;;;;;;;;;;;;;;;0.78;100.00;99963.97;1792149;79;20094;-71
2023/12/11 13:51:07;;;;;;;;;;;;;;;0.78;100.00;99962.25;1794456;79;20107;-71
2023/12/11 13:53:34;;;;;;;;;;;;;;;0.79;100.00;99960.09;1795622;79;20091;-78
2023/12/11 13:56:00;;;;;;;;;;;;;;;0.80;100.00;99960.47;1785291;79;20397;-78
2023/12/11 13:58:27;;;;;;;;;;;;;;;0.81;100.00;99967.72;1771817;79;20389;-77
2023/12/11 14:00:54;;;;;;;;;;;;;;;0.80;100.00;99966.88;1780516;79;20097;-77
2023/12/11 14:03:21;;;;;;;;;;;;;;;0.82;100.00;99966.85;1743524;82;20170;-78
2023/12/11 14:05:51;;;;;;;;;;;;;;;0.81;100.00;99962.59;1754594;81;20120;-75
2023/12/11 14:08:18;;;;;;;;;;;;;;;0.81;100.00;99962.16;1758442;81;20149;-72
2023/12/11 14:10:45;;;;;;;;;;;;;;;0.80;100.00;99966.88;1749047;81;21179;-79
2023/12/11 14:14:15;;;;;;;;;;;;;;;;;;;;;
2023/12/11 14:16:49;;;;;;;;;;;;;;;0.79;100.00;99963.94;1676559;84;20427;-79
2023/12/11 14:19:17;;;;;;;;;;;;;;;0.79;100.00;99961.81;1724288;82;20089;-78
2023/12/11 14:21:46;;;;;;;;;;;;;;;0.79;100.00;99960.53;1751977;81;20128;-75
2023/12/11 14:24:43;;;;;;;;;;;;;;;0.78;100.00;99963.97;1757270;81;20710;-77
2023/12/11 14:27:14;;;;;;;;;;;;;;;0.77;100.00;99968.68;1757732;81;20220;-79
2023/12/11 14:29:42;;;;;;;;;;;;;;;0.76;100.00;99965.70;1757395;81;20153;-78
2023/12/11 14:32:09;;;;;;;;;;;;;;;0.76;100.00;99969.11;1756898;80;20132;-79
2023/12/11 14:34:43;;;;;;;;;;;;;;;0.76;100.00;99967.83;1752437;81;20101;-79
